createdAt,value
2022-07-29T00:01:44.464Z,99.90
2022-07-29T00:04:11.609Z,99.90
2022-07-29T00:06:38.618Z,99.90
2022-07-29T00:09:05.537Z,99.90
2022-07-29T00:11:32.541Z,99.90
2022-07-29T00:13:59.340Z,99.90
2022-07-29T00:16:26.206Z,99.90
2022-07-29T00:18:52.996Z,99.90
2022-07-29T00:21:19.926Z,99.90
2022-07-29T00:23:46.788Z,99.90
2022-07-29T00:26:13.575Z,99.90
2022-07-29T00:28:40.396Z,99.90
2022-07-29T00:31:07.283Z,99.90
2022-07-29T00:33:34.077Z,99.90
2022-07-29T00:36:00.886Z,99.90
2022-07-29T00:38:27.689Z,99.90
2022-07-29T00:40:54.624Z,99.90
2022-07-29T00:43:21.429Z,99.90
2022-07-29T00:45:48.211Z,99.90
2022-07-29T00:48:15.004Z,99.90
2022-07-29T00:50:42.537Z,99.90
2022-07-29T00:53:09.883Z,99.90
2022-07-29T00:55:36.896Z,99.90
2022-07-29T00:58:04.323Z,99.90
2022-07-29T01:00:31.730Z,99.90
2022-07-29T01:02:58.720Z,99.90
2022-07-29T01:05:50.576Z,99.90
2022-07-29T01:08:16.239Z,99.90
2022-07-29T01:10:43.953Z,99.90
2022-07-29T01:13:11.678Z,99.90
2022-07-29T01:15:49.227Z,99.90
2022-07-29T01:18:31.327Z,99.90
2022-07-29T01:21:16.915Z,99.90
2022-07-29T01:24:02.474Z,99.90
2022-07-29T01:26:47.707Z,99.90
2022-07-29T01:29:18.765Z,99.90
2022-07-29T01:32:00.581Z,99.90
2022-07-29T01:34:30.644Z,99.90
2022-07-29T01:37:24.079Z,99.90
2022-07-29T01:39:52.472Z,99.90
2022-07-29T01:42:24.693Z,99.90
2022-07-29T01:44:54.326Z,99.90
2022-07-29T01:47:24.399Z,99.90
2022-07-29T01:49:52.417Z,99.90
2022-07-29T01:52:32.421Z,99.90
2022-07-29T01:55:03.552Z,99.90
2022-07-29T01:57:32.710Z,99.90
2022-07-29T02:00:01.211Z,99.90
2022-07-29T02:02:28.903Z,99.90
2022-07-29T02:04:56.629Z,99.90
2022-07-29T02:07:24.350Z,99.90
2022-07-29T02:09:51.912Z,99.90
2022-07-29T02:12:19.436Z,99.90
2022-07-29T02:14:49.285Z,99.90
2022-07-29T02:17:19.371Z,99.90
2022-07-29T02:19:46.766Z,99.90
2022-07-29T02:22:14.259Z,99.90
2022-07-29T02:24:41.941Z,99.90
2022-07-29T02:27:09.021Z,99.90
2022-07-29T02:29:36.870Z,99.90
2022-07-29T02:32:04.471Z,99.90
2022-07-29T02:34:32.020Z,99.90
2022-07-29T02:36:59.992Z,99.90
2022-07-29T02:39:28.557Z,99.90
2022-07-29T02:42:00.934Z,99.90
2022-07-29T02:44:34.129Z,99.90
2022-07-29T02:47:04.757Z,99.90
2022-07-29T02:49:38.651Z,99.90
2022-07-29T02:52:09.659Z,99.90
2022-07-29T02:54:39.668Z,99.90
2022-07-29T02:57:10.482Z,99.90
2022-07-29T02:59:37.753Z,99.90
2022-07-29T03:02:06.064Z,99.90
2022-07-29T03:04:33.237Z,99.90
2022-07-29T03:07:01.272Z,99.90
2022-07-29T03:09:28.746Z,99.90
2022-07-29T03:11:56.829Z,99.90
2022-07-29T03:14:24.480Z,99.90
2022-07-29T03:16:52.192Z,99.90
2022-07-29T03:19:20.053Z,99.90
2022-07-29T03:21:46.974Z,99.90
2022-07-29T03:24:33.370Z,99.90
2022-07-29T03:27:00.684Z,99.90
2022-07-29T03:29:33.567Z,99.90
2022-07-29T03:32:03.395Z,99.90
2022-07-29T03:34:31.124Z,99.90
2022-07-29T03:36:58.116Z,99.90
2022-07-29T03:39:27.477Z,99.90
2022-07-29T03:41:56.063Z,99.90
2022-07-29T03:44:23.613Z,99.90
2022-07-29T03:46:51.635Z,99.90
2022-07-29T03:49:19.944Z,99.90
2022-07-29T03:51:46.982Z,99.90
2022-07-29T03:54:13.906Z,99.90
2022-07-29T03:56:41.622Z,99.90
2022-07-29T03:59:08.657Z,99.90
2022-07-29T04:01:35.884Z,99.90
2022-07-29T04:04:03.024Z,99.90
2022-07-29T04:06:29.929Z,99.90
2022-07-29T04:08:56.736Z,99.90
2022-07-29T04:11:23.697Z,99.90
2022-07-29T04:13:50.445Z,99.90
2022-07-29T04:16:17.279Z,99.90
2022-07-29T04:18:44.106Z,99.90
2022-07-29T04:21:10.915Z,99.90
2022-07-29T04:23:45.901Z,99.90
2022-07-29T04:26:20.350Z,99.90
2022-07-29T04:28:47.129Z,99.90
2022-07-29T04:31:14.141Z,99.90
2022-07-29T04:33:40.966Z,99.90
2022-07-29T04:36:07.906Z,99.90
2022-07-29T04:38:54.672Z,99.90
2022-07-29T04:41:21.445Z,99.90
2022-07-29T04:43:48.767Z,99.90
2022-07-29T04:46:15.648Z,99.90
2022-07-29T04:48:42.648Z,99.90
2022-07-29T04:51:09.534Z,99.90
2022-07-29T04:53:36.317Z,99.90
2022-07-29T04:56:03.484Z,99.90
2022-07-29T04:58:30.408Z,99.90
2022-07-29T05:00:57.227Z,99.90
2022-07-29T05:03:23.998Z,99.90
2022-07-29T05:05:50.788Z,99.90
2022-07-29T05:08:17.570Z,99.90
2022-07-29T05:10:44.489Z,99.90
2022-07-29T05:13:11.324Z,99.90
2022-07-29T05:15:38.384Z,99.90
2022-07-29T05:18:05.502Z,99.90
2022-07-29T05:20:33.981Z,99.90
2022-07-29T05:23:01.715Z,99.90
2022-07-29T05:25:43.281Z,99.90
2022-07-29T05:28:11.818Z,99.90
2022-07-29T05:30:38.798Z,99.90
2022-07-29T05:33:05.584Z,99.90
2022-07-29T05:35:32.438Z,99.90
2022-07-29T05:37:59.252Z,99.90
2022-07-29T05:40:26.050Z,99.90
2022-07-29T05:43:05.957Z,99.90
2022-07-29T05:45:35.522Z,99.90
2022-07-29T05:48:16.973Z,99.90
2022-07-29T05:50:44.497Z,99.90
2022-07-29T05:53:19.436Z,99.90
2022-07-29T05:55:48.133Z,99.90
2022-07-29T05:58:15.401Z,99.90
2022-07-29T06:00:42.426Z,99.90
2022-07-29T06:03:09.333Z,99.90
2022-07-29T06:05:36.307Z,99.90
2022-07-29T06:08:03.454Z,99.90
2022-07-29T06:10:30.495Z,99.90
2022-07-29T06:12:58.940Z,99.90
2022-07-29T06:15:26.079Z,99.90
2022-07-29T06:17:59.405Z,99.90
2022-07-29T06:20:32.124Z,99.90
2022-07-29T06:23:01.927Z,99.90
2022-07-29T06:25:35.774Z,99.90
2022-07-29T06:28:03.430Z,99.90
2022-07-29T06:30:30.395Z,99.90
2022-07-29T06:32:57.558Z,99.90
2022-07-29T06:35:41.217Z,99.90
2022-07-29T06:38:30.973Z,99.90
2022-07-29T06:41:07.096Z,99.90
2022-07-29T06:43:52.390Z,99.90
2022-07-29T06:46:23.147Z,99.90
2022-07-29T06:48:50.651Z,99.90
2022-07-29T06:51:22.807Z,99.90
2022-07-29T06:53:58.159Z,99.90
2022-07-29T06:56:28.246Z,99.90
2022-07-29T06:58:55.344Z,99.90
2022-07-29T07:01:22.865Z,99.90
2022-07-29T07:03:49.954Z,99.90
2022-07-29T07:06:17.346Z,99.90
2022-07-29T07:08:44.949Z,99.90
2022-07-29T07:11:12.489Z,99.90
2022-07-29T07:13:45.720Z,99.90
2022-07-29T07:16:16.754Z,99.90
2022-07-29T07:18:46.293Z,99.90
2022-07-29T07:21:19.057Z,99.90
2022-07-29T07:23:46.949Z,99.90
2022-07-29T07:26:13.985Z,99.90
2022-07-29T07:28:40.994Z,99.90
2022-07-29T07:31:08.246Z,99.90
2022-07-29T07:33:35.141Z,99.90
2022-07-29T07:36:04.124Z,99.90
2022-07-29T07:38:30.957Z,99.90
2022-07-29T07:40:58.971Z,99.90
2022-07-29T07:43:26.008Z,99.90
2022-07-29T07:45:52.915Z,99.90
2022-07-29T07:48:19.785Z,99.90
2022-07-29T07:50:46.954Z,99.90
2022-07-29T07:53:13.934Z,99.90
2022-07-29T07:58:39.797Z,99.90
2022-07-29T08:01:06.922Z,99.90
2022-07-29T08:03:33.970Z,99.90
2022-07-29T08:06:00.883Z,99.90
2022-07-29T08:08:30.782Z,99.90
2022-07-29T08:10:57.853Z,99.90
2022-07-29T08:13:26.525Z,99.90
2022-07-29T08:16:01.073Z,99.90
2022-07-29T08:18:29.136Z,99.90
2022-07-29T08:20:56.065Z,99.90
2022-07-29T08:23:23.785Z,99.90
2022-07-29T08:25:55.315Z,99.90
2022-07-29T08:28:26.058Z,99.90
2022-07-29T08:30:53.457Z,99.90
2022-07-29T08:33:20.294Z,99.90
2022-07-29T08:35:47.185Z,99.90
2022-07-29T08:38:15.715Z,99.90
2022-07-29T08:40:43.451Z,99.60
2022-07-29T08:43:10.419Z,99.30
2022-07-29T08:45:48.916Z,98.90
2022-07-29T08:48:16.583Z,99.60
2022-07-29T08:50:46.113Z,99.50
2022-07-29T08:53:27.997Z,99.10
2022-07-29T08:55:55.580Z,98.40
2022-07-29T08:58:24.610Z,98.80
2022-07-29T09:00:53.555Z,98.70
2022-07-29T09:03:24.197Z,96.90
2022-07-29T09:05:52.014Z,97.50
2022-07-29T09:08:19.189Z,96.50
2022-07-29T09:10:46.531Z,96.80
2022-07-29T09:13:13.394Z,95.80
2022-07-29T09:15:40.330Z,96.30
2022-07-29T09:18:07.639Z,95.90
2022-07-29T09:21:11.333Z,95.80
2022-07-29T09:23:38.170Z,96.10
2022-07-29T09:26:06.420Z,96.20
2022-07-29T09:28:33.746Z,97.40
2022-07-29T09:31:00.714Z,95.50
2022-07-29T09:33:40.067Z,96.40
2022-07-29T09:36:08.334Z,95.90
2022-07-29T09:38:40.930Z,95.90
2022-07-29T09:41:11.887Z,96.20
2022-07-29T09:43:39.604Z,95.40
2022-07-29T09:46:13.336Z,96.10
2022-07-29T09:48:40.470Z,96.10
2022-07-29T09:51:20.647Z,96.70
2022-07-29T09:53:49.132Z,95.70
2022-07-29T09:56:16.028Z,95.60
2022-07-29T09:58:42.962Z,95.30
2022-07-29T10:01:09.967Z,95.00
2022-07-29T10:03:53.281Z,95.00
2022-07-29T10:06:20.239Z,94.50
2022-07-29T10:08:47.573Z,94.60
2022-07-29T10:11:19.035Z,94.50
2022-07-29T10:13:47.283Z,94.70
2022-07-29T10:16:15.330Z,94.10
2022-07-29T10:18:42.966Z,94.70
2022-07-29T10:21:11.079Z,94.30
2022-07-29T10:23:50.347Z,94.00
2022-07-29T10:26:17.808Z,93.10
2022-07-29T10:28:45.431Z,93.50
2022-07-29T10:31:16.554Z,94.10
2022-07-29T10:34:02.116Z,93.90
2022-07-29T10:36:49.001Z,94.30
2022-07-29T10:39:15.945Z,95.90
2022-07-29T10:41:47.723Z,94.90
2022-07-29T10:44:23.114Z,94.10
2022-07-29T10:46:51.733Z,94.80
2022-07-29T10:49:19.743Z,95.30
2022-07-29T10:51:52.601Z,94.40
2022-07-29T10:54:20.311Z,94.00
2022-07-29T10:56:48.957Z,94.30
2022-07-29T10:59:22.960Z,94.70
2022-07-29T11:01:53.675Z,94.30
2022-07-29T11:04:40.237Z,94.10
2022-07-29T11:07:10.470Z,94.00
2022-07-29T11:09:38.355Z,93.20
2022-07-29T11:12:25.887Z,93.20
2022-07-29T11:14:53.634Z,93.30
2022-07-29T11:17:20.480Z,93.70
2022-07-29T11:19:52.056Z,93.20
2022-07-29T11:22:35.313Z,92.90
2022-07-29T11:25:16.736Z,93.10
2022-07-29T11:27:45.779Z,93.20
2022-07-29T11:30:15.420Z,92.40
2022-07-29T11:32:44.841Z,92.60
2022-07-29T11:35:19.132Z,92.00
2022-07-29T11:37:52.113Z,91.40
2022-07-29T11:40:25.025Z,91.70
2022-07-29T11:42:52.478Z,91.20
2022-07-29T11:45:43.337Z,90.70
2022-07-29T11:48:27.792Z,90.90
2022-07-29T11:50:55.402Z,90.80
2022-07-29T11:53:25.344Z,89.10
2022-07-29T11:55:55.663Z,87.50
2022-07-29T11:58:26.517Z,89.20
2022-07-29T12:00:55.460Z,87.80
2022-07-29T12:03:33.562Z,88.30
2022-07-29T12:06:14.928Z,89.00
2022-07-29T12:08:43.689Z,89.50
2022-07-29T12:11:23.495Z,89.50
2022-07-29T12:13:51.561Z,89.70
2022-07-29T12:16:18.820Z,88.60
2022-07-29T12:19:02.840Z,89.30
2022-07-29T12:21:54.054Z,88.80
2022-07-29T12:24:26.752Z,90.40
2022-07-29T12:26:55.527Z,89.70
2022-07-29T12:29:33.507Z,89.30
2022-07-29T12:32:03.126Z,87.60
2022-07-29T12:34:31.116Z,89.30
2022-07-29T12:37:01.975Z,90.00
2022-07-29T12:39:29.443Z,89.10
2022-07-29T12:42:04.785Z,89.60
2022-07-29T12:44:52.526Z,90.10
2022-07-29T12:47:20.278Z,89.80
2022-07-29T12:49:47.949Z,90.10
2022-07-29T12:52:24.792Z,88.90
2022-07-29T12:54:51.660Z,88.70
2022-07-29T12:57:20.107Z,89.10
2022-07-29T12:59:59.487Z,88.20
2022-07-29T13:02:26.391Z,88.10
2022-07-29T13:05:00.723Z,88.30
2022-07-29T13:07:54.139Z,88.30
2022-07-29T13:10:18.206Z,89.20
2022-07-29T13:13:10.656Z,87.80
2022-07-29T13:15:38.561Z,89.20
2022-07-29T13:18:05.735Z,88.80
2022-07-29T13:20:33.156Z,89.30
2022-07-29T13:23:01.553Z,90.40
2022-07-29T13:25:32.793Z,89.30
2022-07-29T13:28:00.240Z,88.90
2022-07-29T13:30:27.080Z,89.30
2022-07-29T13:32:54.085Z,89.60
2022-07-29T13:35:21.380Z,89.40
2022-07-29T13:37:48.487Z,89.30
2022-07-29T13:40:45.112Z,89.40
2022-07-29T13:43:12.255Z,89.50
2022-07-29T13:45:39.145Z,89.20
2022-07-29T13:48:07.290Z,89.70
2022-07-29T13:50:34.195Z,88.90
2022-07-29T13:53:01.090Z,87.90
2022-07-29T13:55:27.945Z,88.30
2022-07-29T13:57:54.776Z,88.20
2022-07-29T14:00:21.733Z,87.30
2022-07-29T14:02:48.671Z,87.20
2022-07-29T14:05:15.535Z,88.20
2022-07-29T14:07:42.393Z,88.00
2022-07-29T14:10:09.631Z,89.60
2022-07-29T14:12:36.769Z,88.30
2022-07-29T14:15:03.749Z,88.80
2022-07-29T14:17:30.750Z,87.90
2022-07-29T14:19:57.725Z,88.00
2022-07-29T14:22:26.483Z,87.60
2022-07-29T14:24:56.502Z,88.10
2022-07-29T14:27:37.670Z,88.30
2022-07-29T14:30:06.412Z,88.50
2022-07-29T14:32:33.282Z,87.40
2022-07-29T14:35:00.331Z,88.40
2022-07-29T14:37:27.289Z,87.60
2022-07-29T14:39:55.541Z,88.20
2022-07-29T14:42:22.370Z,88.30
2022-07-29T14:44:50.278Z,88.10
2022-07-29T14:47:17.271Z,88.90
2022-07-29T14:49:44.147Z,87.40
2022-07-29T14:52:11.113Z,87.90
2022-07-29T14:54:38.022Z,87.60
2022-07-29T14:57:05.017Z,87.10
2022-07-29T14:59:31.892Z,87.50
2022-07-29T15:01:58.995Z,86.60
2022-07-29T15:04:26.278Z,87.70
2022-07-29T15:06:53.246Z,88.10
2022-07-29T15:09:20.018Z,87.70
2022-07-29T15:11:46.931Z,88.20
2022-07-29T15:14:13.714Z,88.40
2022-07-29T15:16:43.779Z,89.10
2022-07-29T15:19:13.614Z,88.70
2022-07-29T15:21:41.569Z,89.30
2022-07-29T15:24:15.278Z,89.10
2022-07-29T15:26:43.459Z,89.50
2022-07-29T15:29:10.392Z,88.30
2022-07-29T15:31:40.669Z,88.60
2022-07-29T15:34:08.411Z,88.80
2022-07-29T15:36:51.652Z,89.10
2022-07-29T15:39:19.998Z,88.30
2022-07-29T15:41:46.938Z,88.50
2022-07-29T15:44:13.861Z,86.70
2022-07-29T15:46:59.955Z,88.00
2022-07-29T15:49:47.243Z,88.00
2022-07-29T15:52:25.155Z,88.60
2022-07-29T15:54:54.207Z,89.50
2022-07-29T15:57:21.332Z,89.60
2022-07-29T15:59:48.330Z,90.10
2022-07-29T16:02:15.653Z,90.40
2022-07-29T16:04:42.720Z,90.30
2022-07-29T16:07:09.996Z,90.50
2022-07-29T16:09:36.930Z,90.80
2022-07-29T16:12:05.005Z,90.30
2022-07-29T16:14:42.243Z,90.50
2022-07-29T16:17:09.326Z,90.40
2022-07-29T16:19:44.066Z,90.40
2022-07-29T16:22:11.414Z,90.30
2022-07-29T16:24:39.305Z,89.90
2022-07-29T16:27:06.313Z,89.90
2022-07-29T16:29:33.312Z,89.10
2022-07-29T16:32:01.415Z,89.20
2022-07-29T16:34:28.600Z,88.50
2022-07-29T16:36:57.800Z,88.70
2022-07-29T16:39:24.994Z,88.10
2022-07-29T16:41:51.922Z,87.80
2022-07-29T16:44:18.932Z,88.20
2022-07-29T16:46:45.828Z,87.10
2022-07-29T16:49:14.095Z,86.10
2022-07-29T16:51:47.945Z,86.20
2022-07-29T16:54:15.109Z,86.50
2022-07-29T16:56:42.170Z,86.10
2022-07-29T16:59:09.067Z,86.40
2022-07-29T17:01:36.203Z,85.60
2022-07-29T17:04:06.301Z,86.30
2022-07-29T17:06:37.245Z,85.90
2022-07-29T17:09:06.065Z,86.40
2022-07-29T17:11:53.592Z,86.60
2022-07-29T17:14:23.411Z,85.80
2022-07-29T17:17:00.352Z,84.80
2022-07-29T17:19:34.478Z,85.90
2022-07-29T17:22:12.651Z,84.70
2022-07-29T17:24:43.013Z,86.70
2022-07-29T17:27:10.153Z,83.40
2022-07-29T17:29:40.414Z,82.90
2022-07-29T17:32:08.153Z,82.60
2022-07-29T17:34:39.102Z,85.70
2022-07-29T17:37:06.951Z,83.60
2022-07-29T17:39:36.075Z,83.80
2022-07-29T17:42:04.755Z,84.70
2022-07-29T17:44:36.290Z,82.60
2022-07-29T17:47:04.353Z,85.60
2022-07-29T17:49:31.238Z,84.40
2022-07-29T17:52:00.968Z,85.70
2022-07-29T17:54:28.783Z,86.80
2022-07-29T17:56:58.018Z,88.10
2022-07-29T17:59:25.132Z,87.60
2022-07-29T18:01:53.318Z,88.20
2022-07-29T18:04:21.156Z,90.10
2022-07-29T18:06:48.603Z,89.20
2022-07-29T18:09:15.498Z,90.10
2022-07-29T18:11:44.453Z,89.10
2022-07-29T18:14:13.432Z,90.30
2022-07-29T18:16:40.732Z,90.20
2022-07-29T18:19:07.900Z,89.10
2022-07-29T18:21:45.916Z,89.60
2022-07-29T18:24:18.939Z,89.40
2022-07-29T18:26:46.251Z,88.60
2022-07-29T18:29:13.137Z,91.30
2022-07-29T18:31:41.259Z,90.60
2022-07-29T18:34:08.189Z,90.70
2022-07-29T18:36:34.953Z,91.00
2022-07-29T18:39:01.724Z,90.60
2022-07-29T18:41:28.498Z,90.30
2022-07-29T18:43:55.412Z,91.50
2022-07-29T18:46:22.464Z,91.20
2022-07-29T18:48:49.849Z,91.80
2022-07-29T18:51:16.692Z,92.00
2022-07-29T18:53:44.588Z,92.00
2022-07-29T18:56:11.370Z,91.60
2022-07-29T18:58:38.875Z,92.00
2022-07-29T19:01:05.911Z,92.50
2022-07-29T19:03:32.758Z,93.00
2022-07-29T19:05:59.635Z,92.00
2022-07-29T19:08:26.598Z,92.30
2022-07-29T19:10:53.405Z,92.70
2022-07-29T19:13:20.198Z,92.50
2022-07-29T19:15:47.373Z,93.30
2022-07-29T19:18:14.163Z,93.00
2022-07-29T19:20:42.028Z,92.60
2022-07-29T19:23:09.324Z,93.20
2022-07-29T19:25:36.121Z,93.10
2022-07-29T19:28:03.101Z,93.10
2022-07-29T19:30:29.907Z,93.30
2022-07-29T19:32:56.717Z,93.50
2022-07-29T19:35:31.596Z,93.30
2022-07-29T19:38:03.096Z,93.80
2022-07-29T19:40:30.135Z,94.40
2022-07-29T19:42:57.404Z,94.20
2022-07-29T19:45:24.888Z,94.20
2022-07-29T19:47:52.021Z,94.20
2022-07-29T19:50:18.916Z,94.90
2022-07-29T19:52:47.151Z,95.10
2022-07-29T19:55:14.280Z,94.90
2022-07-29T19:57:41.389Z,95.20
2022-07-29T20:00:11.268Z,95.50
2022-07-29T20:02:39.773Z,95.20
2022-07-29T20:05:07.056Z,95.80
2022-07-29T20:07:33.885Z,95.80
2022-07-29T20:10:00.722Z,95.60
2022-07-29T20:12:27.763Z,95.80
2022-07-29T20:14:54.788Z,96.00
2022-07-29T20:17:24.436Z,96.40
2022-07-29T20:19:51.908Z,96.30
2022-07-29T20:22:20.977Z,96.50
2022-07-29T20:24:49.281Z,96.50
2022-07-29T20:27:19.239Z,96.10
2022-07-29T20:29:47.658Z,96.20
2022-07-29T20:32:14.953Z,96.40
2022-07-29T20:34:42.037Z,96.80
2022-07-29T20:37:14.533Z,96.80
2022-07-29T20:39:42.748Z,96.70
2022-07-29T20:42:09.635Z,96.90
2022-07-29T20:44:36.870Z,96.90
2022-07-29T20:47:05.400Z,97.10
2022-07-29T20:49:39.064Z,97.30
2022-07-29T20:52:09.087Z,97.40
2022-07-29T20:54:35.887Z,97.40
2022-07-29T20:57:03.019Z,97.30
2022-07-29T20:59:29.985Z,97.50
2022-07-29T21:01:56.750Z,97.60
2022-07-29T21:04:30.534Z,97.30
2022-07-29T21:07:02.428Z,97.50
2022-07-29T21:09:29.561Z,97.30
2022-07-29T21:11:59.859Z,97.30
2022-07-29T21:14:39.072Z,97.20
2022-07-29T21:17:07.584Z,97.60
2022-07-29T21:19:34.812Z,97.80
2022-07-29T21:22:01.609Z,97.50
2022-07-29T21:24:29.074Z,97.40
2022-07-29T21:27:20.759Z,97.70
2022-07-29T21:29:48.472Z,97.90
2022-07-29T21:32:27.692Z,98.00
2022-07-29T21:34:57.484Z,97.70
2022-07-29T21:37:24.304Z,98.00
2022-07-29T21:39:51.093Z,97.70
2022-07-29T21:42:17.967Z,97.60
2022-07-29T21:44:44.833Z,97.80
2022-07-29T21:47:11.916Z,97.80
2022-07-29T21:49:39.222Z,98.00
2022-07-29T21:52:06.249Z,98.10
2022-07-29T21:54:34.883Z,98.20
2022-07-29T21:57:01.834Z,97.70
2022-07-29T21:59:29.530Z,97.80
2022-07-29T22:01:56.813Z,98.20
2022-07-29T22:04:23.880Z,97.90
2022-07-29T22:06:50.628Z,98.10
2022-07-29T22:09:17.519Z,98.00
2022-07-29T22:11:44.418Z,97.70
2022-07-29T22:14:12.331Z,98.00
2022-07-29T22:16:39.147Z,98.00
2022-07-29T22:19:05.966Z,97.90
2022-07-29T22:21:32.826Z,98.40
2022-07-29T22:24:00.552Z,98.00
2022-07-29T22:26:27.377Z,97.90
2022-07-29T22:28:54.150Z,97.60
2022-07-29T22:31:21.012Z,97.60
2022-07-29T22:33:50.779Z,97.20
2022-07-29T22:36:17.897Z,97.60
2022-07-29T22:38:46.448Z,97.50
2022-07-29T22:41:15.930Z,97.60
2022-07-29T22:43:42.754Z,97.40
2022-07-29T22:46:10.192Z,97.40
2022-07-29T22:48:37.163Z,96.80
2022-07-29T22:51:04.089Z,97.10
2022-07-29T22:53:30.922Z,97.50
2022-07-29T22:55:57.763Z,97.00
2022-07-29T22:58:24.779Z,97.50
2022-07-29T23:00:51.626Z,97.10
2022-07-29T23:03:18.571Z,97.50
2022-07-29T23:05:45.368Z,97.00
2022-07-29T23:08:12.259Z,96.80
2022-07-29T23:10:39.046Z,97.70
2022-07-29T23:13:05.849Z,97.80
2022-07-29T23:15:32.760Z,97.40
2022-07-29T23:17:59.592Z,97.70
2022-07-29T23:20:26.484Z,97.40
2022-07-29T23:22:53.217Z,98.20
2022-07-29T23:25:20.083Z,97.80
2022-07-29T23:27:46.911Z,97.40
2022-07-29T23:30:13.852Z,97.70
2022-07-29T23:32:40.730Z,97.10
2022-07-29T23:35:07.866Z,97.50
2022-07-29T23:37:35.050Z,97.10
2022-07-29T23:40:01.868Z,97.90
2022-07-29T23:42:28.670Z,97.80
2022-07-29T23:44:55.464Z,98.00
2022-07-29T23:47:22.196Z,98.50
2022-07-29T23:49:50.078Z,98.40
2022-07-29T23:52:18.696Z,98.30
2022-07-29T23:54:45.511Z,98.00
2022-07-29T23:57:12.280Z,97.90
2022-07-29T23:59:39.091Z,98.40
